No1 Tokuyama — JK5318 — position and weather

sailwx.info

Track history (hours):
 
Tides and Currents Weather Stations Pressure Air Temp Water Temp Dewpoint Dewpoint Depression Visibility Wind Speed Wind Dir Waves Ship Positions

No1 Tokuyama

Last reported at 2015-Jan-31 03:29 UTC. Time now 2015-Jan-31 04:05 UTC.
Position N 33°37' E 130°24'.

Length 110 m; draft 5.4 m.

Type: Cargo ship. MMSI: 431400487.

Date/timePositionNaut miles runAvg speedWind from/ knotsBaromVisibWave heightAir tempDewpointWater temp
2015-Jan-31 03:29N 33°37' E 130°24'0 0.0
2015-Jan-31 02:29N 33°37' E 130°24'0 0.0
2015-Jan-31 01:29N 33°37' E 130°24'0 0.0
2015-Jan-31 00:29N 33°37' E 130°24'0 0.0
2015-Jan-30 23:32N 33°37' E 130°24'0 0.4
2015-Jan-30 22:33N 33°37' E 130°24'10 9.5
2015-Jan-30 21:33N 33°44' E 130°16'2712.0
2015-Jan-30 19:16N 34°02' E 130°41'  
2015-Jan-27 11:32N 34°33' E 134°48'1111.4
2015-Jan-27 10:32N 34°38' E 135°00'1010.6
2015-Jan-27 09:33N 34°36' E 135°13'1211.7
2015-Jan-27 08:33N 34°39' E 135°26'0 0.2
2015-Jan-27 07:28N 34°39' E 135°27'0 0.0
2015-Jan-27 06:28N 34°39' E 135°27'0 0.0
2015-Jan-27 05:28N 34°39' E 135°27'1 1.2
2015-Jan-27 04:33N 34°39' E 135°25'3 3.1
2015-Jan-27 03:29N 34°37' E 135°22'0 0.0
2015-Jan-27 02:29N 34°37' E 135°22'0 0.0
2015-Jan-27 01:29N 34°37' E 135°22'1 1.5
2015-Jan-27 00:33N 34°36' E 135°21'1212.5
2015-Jan-26 23:33N 34°35' E 135°06'1312.7
2015-Jan-26 22:33N 34°33' E 134°50'  
2015-Jan-24 05:32N 34°34' E 134°48'1313.1
2015-Jan-24 04:33N 34°36' E 135°03'1313.6
2015-Jan-24 03:33N 34°38' E 135°19'6 5.5
2015-Jan-24 02:29N 34°39' E 135°27'0 0.0
2015-Jan-24 01:29N 34°39' E 135°27'0 0.0
2015-Jan-24 00:29N 34°39' E 135°27'0 0.0
2015-Jan-23 23:29N 34°39' E 135°27'0 0.0
2015-Jan-23 22:29N 34°39' E 135°27'0 0.0
2015-Jan-23 21:23N 34°39' E 135°27'0 0.0
2015-Jan-23 20:23N 34°39' E 135°27'0 0.0
2015-Jan-23 19:29N 34°39' E 135°27'0 0.0
2015-Jan-23 18:23N 34°39' E 135°27'0 0.0
2015-Jan-23 17:29N 34°39' E 135°27'0 0.0
2015-Jan-23 16:29N 34°39' E 135°27'0 0.0
2015-Jan-23 15:29N 34°39' E 135°27'0 0.0
2015-Jan-23 14:29N 34°39' E 135°27'0 0.0
2015-Jan-23 13:29N 34°39' E 135°27'0 0.0
2015-Jan-23 12:23N 34°39' E 135°27'0 0.0
2015-Jan-23 11:23N 34°39' E 135°27'0 0.0
2015-Jan-23 10:29N 34°39' E 135°27'0 0.0
2015-Jan-23 09:23N 34°39' E 135°27'0 0.0
2015-Jan-23 08:32N 34°39' E 135°27'0 0.0
2015-Jan-23 07:26N 34°39' E 135°27'0 0.3
2015-Jan-23 06:33N 34°39' E 135°26'10 9.8
2015-Jan-23 05:33N 34°35' E 135°15'1312.8
2015-Jan-23 04:33N 34°37' E 134°60'  
Track history (hours):
 
Tides and Currents Weather Stations Pressure Air Temp Water Temp Dewpoint Dewpoint Depression Visibility Wind Speed Wind Dir Waves Ship Positions

No1 Tokuyama

Last reported at 2015-Jan-31 03:29 UTC. Time now 2015-Jan-31 04:05 UTC.
Position N 33°37' E 130°24'.

Length 110 m; draft 5.4 m.

Type: Cargo ship. MMSI: 431400487.

Date/timePositionNaut miles runAvg speedWind from/ knotsBaromVisibWave heightAir tempDewpointWater temp
2015-Jan-31 03:29N 33°37' E 130°24'0 0.0
2015-Jan-31 02:29N 33°37' E 130°24'0 0.0
2015-Jan-31 01:29N 33°37' E 130°24'0 0.0
2015-Jan-31 00:29N 33°37' E 130°24'0 0.0
2015-Jan-30 23:32N 33°37' E 130°24'0 0.4
2015-Jan-30 22:33N 33°37' E 130°24'10 9.5
2015-Jan-30 21:33N 33°44' E 130°16'2712.0
2015-Jan-30 19:16N 34°02' E 130°41'  
2015-Jan-27 11:32N 34°33' E 134°48'1111.4
2015-Jan-27 10:32N 34°38' E 135°00'1010.6
2015-Jan-27 09:33N 34°36' E 135°13'1211.7
2015-Jan-27 08:33N 34°39' E 135°26'0 0.2
2015-Jan-27 07:28N 34°39' E 135°27'0 0.0
2015-Jan-27 06:28N 34°39' E 135°27'0 0.0
2015-Jan-27 05:28N 34°39' E 135°27'1 1.2
2015-Jan-27 04:33N 34°39' E 135°25'3 3.1
2015-Jan-27 03:29N 34°37' E 135°22'0 0.0
2015-Jan-27 02:29N 34°37' E 135°22'0 0.0
2015-Jan-27 01:29N 34°37' E 135°22'1 1.5
2015-Jan-27 00:33N 34°36' E 135°21'1212.5
2015-Jan-26 23:33N 34°35' E 135°06'1312.7
2015-Jan-26 22:33N 34°33' E 134°50'  
2015-Jan-24 05:32N 34°34' E 134°48'1313.1
2015-Jan-24 04:33N 34°36' E 135°03'1313.6
2015-Jan-24 03:33N 34°38' E 135°19'6 5.5
2015-Jan-24 02:29N 34°39' E 135°27'0 0.0
2015-Jan-24 01:29N 34°39' E 135°27'0 0.0
2015-Jan-24 00:29N 34°39' E 135°27'0 0.0
2015-Jan-23 23:29N 34°39' E 135°27'0 0.0
2015-Jan-23 22:29N 34°39' E 135°27'0 0.0
2015-Jan-23 21:23N 34°39' E 135°27'0 0.0
2015-Jan-23 20:23N 34°39' E 135°27'0 0.0
2015-Jan-23 19:29N 34°39' E 135°27'0 0.0
2015-Jan-23 18:23N 34°39' E 135°27'0 0.0
2015-Jan-23 17:29N 34°39' E 135°27'0 0.0
2015-Jan-23 16:29N 34°39' E 135°27'0 0.0
2015-Jan-23 15:29N 34°39' E 135°27'0 0.0
2015-Jan-23 14:29N 34°39' E 135°27'0 0.0
2015-Jan-23 13:29N 34°39' E 135°27'0 0.0
2015-Jan-23 12:23N 34°39' E 135°27'0 0.0
2015-Jan-23 11:23N 34°39' E 135°27'0 0.0
2015-Jan-23 10:29N 34°39' E 135°27'0 0.0
2015-Jan-23 09:23N 34°39' E 135°27'0 0.0
2015-Jan-23 08:32N 34°39' E 135°27'0 0.0
2015-Jan-23 07:26N 34°39' E 135°27'0 0.3
2015-Jan-23 06:33N 34°39' E 135°26'10 9.8
2015-Jan-23 05:33N 34°35' E 135°15'1312.8
2015-Jan-23 04:33N 34°37' E 134°60'  

Dump ship's entire track history